sensor_id;sensor_type;location;lat;lon;timestamp;pressure;altitude;pressure_sealevel;temperature;humidity
41800;BME280;27468;47.460;19.034;2023-08-30T00:00:19;99133.63;;;18.52;98.48
41800;BME280;27468;47.460;19.034;2023-08-30T00:02:47;99144.88;;;18.44;100.00
41800;BME280;27468;47.460;19.034;2023-08-30T00:05:13;99173.03;;;18.61;100.00
41800;BME280;27468;47.460;19.034;2023-08-30T00:07:38;99192.56;;;18.62;99.74
41800;BME280;27468;47.460;19.034;2023-08-30T00:10:08;99142.44;;;18.29;100.00
41800;BME280;27468;47.460;19.034;2023-08-30T00:12:35;99192.06;;;18.44;100.00
41800;BME280;27468;47.460;19.034;2023-08-30T00:15:01;99198.47;;;18.41;100.00
41800;BME280;27468;47.460;19.034;2023-08-30T00:17:26;99193.13;;;18.29;100.00
41800;BME280;27468;47.460;19.034;2023-08-30T00:19:51;99161.25;;;18.02;100.00
41800;BME280;27468;47.460;19.034;2023-08-30T00:22:18;99184.19;;;18.17;100.00
41800;BME280;27468;47.460;19.034;2023-08-30T00:24:44;99177.66;;;18.08;100.00
41800;BME280;27468;47.460;19.034;2023-08-30T00:27:10;99188.75;;;18.02;100.00
41800;BME280;27468;47.460;19.034;2023-08-30T00:29:35;99225.59;;;18.23;100.00
41800;BME280;27468;47.460;19.034;2023-08-30T00:32:01;99176.50;;;17.87;100.00
41800;BME280;27468;47.460;19.034;2023-08-30T00:34:26;99142.66;;;17.62;100.00
41800;BME280;27468;47.460;19.034;2023-08-30T00:36:52;99175.63;;;17.74;100.00
41800;BME280;27468;47.460;19.034;2023-08-30T00:39:18;99198.06;;;17.84;100.00
41800;BME280;27468;47.460;19.034;2023-08-30T00:41:43;99193.00;;;17.67;100.00
41800;BME280;27468;47.460;19.034;2023-08-30T00:44:10;99184.44;;;17.62;100.00
41800;BME280;27468;47.460;19.034;2023-08-30T00:46:36;99182.72;;;17.61;100.00
41800;BME280;27468;47.460;19.034;2023-08-30T00:49:02;99166.72;;;17.48;100.00
41800;BME280;27468;47.460;19.034;2023-08-30T00:51:28;99229.19;;;17.84;100.00
41800;BME280;27468;47.460;19.034;2023-08-30T00:53:54;99203.28;;;17.59;100.00
41800;BME280;27468;47.460;19.034;2023-08-30T00:56:20;99257.63;;;17.70;100.00
41800;BME280;27468;47.460;19.034;2023-08-30T00:58:47;99167.09;;;17.29;100.00
41800;BME280;27468;47.460;19.034;2023-08-30T01:01:15;99196.63;;;17.39;100.00
41800;BME280;27468;47.460;19.034;2023-08-30T01:03:41;99221.19;;;17.57;100.00
41800;BME280;27468;47.460;19.034;2023-08-30T01:06:07;99231.66;;;17.60;100.00
41800;BME280;27468;47.460;19.034;2023-08-30T01:08:33;99193.97;;;17.39;100.00
41800;BME280;27468;47.460;19.034;2023-08-30T01:13:55;99184.91;;;17.29;100.00
41800;BME280;27468;47.460;19.034;2023-08-30T01:16:23;99171.13;;;17.22;100.00
41800;BME280;27468;47.460;19.034;2023-08-30T01:18:51;99226.63;;;17.55;100.00
41800;BME280;27468;47.460;19.034;2023-08-30T01:21:50;99225.03;;;17.53;100.00
41800;BME280;27468;47.460;19.034;2023-08-30T01:24:26;99199.38;;;17.37;100.00
41800;BME280;27468;47.460;19.034;2023-08-30T01:27:12;99204.53;;;17.40;100.00
41800;BME280;27468;47.460;19.034;2023-08-30T01:29:40;99213.91;;;17.46;100.00
41800;BME280;27468;47.460;19.034;2023-08-30T01:32:08;99202.16;;;17.36;100.00
41800;BME280;27468;47.460;19.034;2023-08-30T01:34:36;99197.25;;;17.30;100.00
41800;BME280;27468;47.460;19.034;2023-08-30T01:37:05;99168.13;;;17.14;100.00
41800;BME280;27468;47.460;19.034;2023-08-30T01:39:31;99190.44;;;17.26;100.00
41800;BME280;27468;47.460;19.034;2023-08-30T01:41:57;99202.41;;;17.33;100.00
41800;BME280;27468;47.460;19.034;2023-08-30T01:44:27;99211.63;;;17.27;100.00
41800;BME280;27468;47.460;19.034;2023-08-30T01:46:54;99189.31;;;17.15;100.00
41800;BME280;27468;47.460;19.034;2023-08-30T01:49:21;99228.19;;;17.32;100.00
41800;BME280;27468;47.460;19.034;2023-08-30T01:51:47;99186.09;;;17.10;100.00
41800;BME280;27468;47.460;19.034;2023-08-30T01:54:17;99227.19;;;17.33;100.00
41800;BME280;27468;47.460;19.034;2023-08-30T01:56:44;99223.47;;;17.36;100.00
41800;BME280;27468;47.460;19.034;2023-08-30T01:59:10;99225.19;;;17.37;100.00
41800;BME280;27468;47.460;19.034;2023-08-30T02:01:35;99185.06;;;17.13;100.00
41800;BME280;27468;47.460;19.034;2023-08-30T02:04:00;99216.13;;;17.27;100.00
41800;BME280;27468;47.460;19.034;2023-08-30T02:07:00;99226.38;;;17.33;100.00
41800;BME280;27468;47.460;19.034;2023-08-30T02:09:32;99187.16;;;17.08;100.00
41800;BME280;27468;47.460;19.034;2023-08-30T02:12:04;99193.03;;;17.13;100.00
41800;BME280;27468;47.460;19.034;2023-08-30T02:14:32;99241.03;;;17.26;100.00
41800;BME280;27468;47.460;19.034;2023-08-30T02:16:58;99213.28;;;17.15;100.00
41800;BME280;27468;47.460;19.034;2023-08-30T02:19:24;99199.25;;;16.99;100.00
41800;BME280;27468;47.460;19.034;2023-08-30T02:21:50;99205.81;;;17.08;100.00
41800;BME280;27468;47.460;19.034;2023-08-30T02:24:15;99177.22;;;16.97;100.00
41800;BME280;27468;47.460;19.034;2023-08-30T02:26:41;99190.97;;;17.04;100.00
41800;BME280;27468;47.460;19.034;2023-08-30T02:29:06;99196.50;;;17.01;100.00
41800;BME280;27468;47.460;19.034;2023-08-30T02:31:33;99218.16;;;17.09;100.00
41800;BME280;27468;47.460;19.034;2023-08-30T02:33:58;99240.38;;;17.22;100.00
41800;BME280;27468;47.460;19.034;2023-08-30T02:36:24;99199.25;;;16.99;100.00
41800;BME280;27468;47.460;19.034;2023-08-30T02:38:49;99250.94;;;17.24;100.00
41800;BME280;27468;47.460;19.034;2023-08-30T02:41:15;99249.22;;;17.23;100.00
41800;BME280;27468;47.460;19.034;2023-08-30T02:43:40;99216.19;;;16.98;100.00
41800;BME280;27468;47.460;19.034;2023-08-30T02:46:05;99256.19;;;17.11;100.00
41800;BME280;27468;47.460;19.034;2023-08-30T02:48:34;99257.53;;;17.18;100.00
41800;BME280;27468;47.460;19.034;2023-08-30T02:50:59;99253.16;;;17.17;100.00
41800;BME280;27468;47.460;19.034;2023-08-30T02:53:25;99198.03;;;16.91;100.00
41800;BME280;27468;47.460;19.034;2023-08-30T02:55:50;99222.00;;;16.91;100.00
41800;BME280;27468;47.460;19.034;2023-08-30T02:58:16;99189.34;;;16.74;100.00
41800;BME280;27468;47.460;19.034;2023-08-30T03:00:41;99245.84;;;17.06;100.00
41800;BME280;27468;47.460;19.034;2023-08-30T03:03:07;99243.28;;;17.05;100.00
41800;BME280;27468;47.460;19.034;2023-08-30T03:05:32;99240.16;;;16.98;100.00
41800;BME280;27468;47.460;19.034;2023-08-30T03:07:57;99220.50;;;16.87;100.00
41800;BME280;27468;47.460;19.034;2023-08-30T03:10:24;99238.72;;;16.93;100.00
41800;BME280;27468;47.460;19.034;2023-08-30T03:12:49;99195.06;;;16.68;100.00
41800;BME280;27468;47.460;19.034;2023-08-30T03:15:15;99223.53;;;16.80;100.00
41800;BME280;27468;47.460;19.034;2023-08-30T03:17:40;99253.66;;;16.95;100.00
41800;BME280;27468;47.460;19.034;2023-08-30T03:20:06;99253.94;;;16.91;100.00
41800;BME280;27468;47.460;19.034;2023-08-30T03:22:32;99232.84;;;16.88;100.00
41800;BME280;27468;47.460;19.034;2023-08-30T03:24:57;99236.47;;;16.87;100.00
41800;BME280;27468;47.460;19.034;2023-08-30T03:27:23;99210.00;;;16.71;100.00
41800;BME280;27468;47.460;19.034;2023-08-30T03:29:48;99201.69;;;16.61;100.00
41800;BME280;27468;47.460;19.034;2023-08-30T03:32:17;99242.06;;;16.82;100.00
41800;BME280;27468;47.460;19.034;2023-08-30T03:34:46;99257.75;;;16.87;100.00
41800;BME280;27468;47.460;19.034;2023-08-30T03:37:15;99236.19;;;16.77;100.00
41800;BME280;27468;47.460;19.034;2023-08-30T03:39:41;99217.50;;;16.64;100.00
41800;BME280;27468;47.460;19.034;2023-08-30T03:42:06;99244.44;;;16.87;100.00
41800;BME280;27468;47.460;19.034;2023-08-30T03:44:32;99190.88;;;16.50;100.00
41800;BME280;27468;47.460;19.034;2023-08-30T03:46:57;99162.84;;;16.30;100.00
41800;BME280;27468;47.460;19.034;2023-08-30T03:49:23;99196.47;;;16.45;100.00
41800;BME280;27468;47.460;19.034;2023-08-30T03:51:48;99196.09;;;16.51;100.00
41800;BME280;27468;47.460;19.034;2023-08-30T03:54:14;99257.09;;;16.83;100.00
41800;BME280;27468;47.460;19.034;2023-08-30T03:56:42;99237.56;;;16.70;100.00
41800;BME280;27468;47.460;19.034;2023-08-30T03:59:07;99237.91;;;16.64;100.00
41800;BME280;27468;47.460;19.034;2023-08-30T04:01:33;99277.91;;;16.76;100.00
41800;BME280;27468;47.460;19.034;2023-08-30T04:03:58;99261.94;;;16.76;100.00
41800;BME280;27468;47.460;19.034;2023-08-30T04:06:24;99256.09;;;16.71;100.00
41800;BME280;27468;47.460;19.034;2023-08-30T04:08:49;99256.09;;;16.71;100.00
41800;BME280;27468;47.460;19.034;2023-08-30T04:11:14;99282.19;;;16.79;100.00
41800;BME280;27468;47.460;19.034;2023-08-30T04:13:40;99230.41;;;16.56;100.00
41800;BME280;27468;47.460;19.034;2023-08-30T04:16:05;99277.34;;;16.86;100.00
41800;BME280;27468;47.460;19.034;2023-08-30T04:18:31;99260.63;;;16.83;100.00
41800;BME280;27468;47.460;19.034;2023-08-30T04:20:58;99176.72;;;16.35;100.00
41800;BME280;27468;47.460;19.034;2023-08-30T04:23:23;99288.56;;;16.91;100.00
41800;BME280;27468;47.460;19.034;2023-08-30T04:25:49;99290.19;;;16.93;100.00
41800;BME280;27468;47.460;19.034;2023-08-30T04:28:14;99236.03;;;16.66;100.00
41800;BME280;27468;47.460;19.034;2023-08-30T04:30:40;99286.75;;;17.05;100.00
41800;BME280;27468;47.460;19.034;2023-08-30T04:33:05;99283.41;;;17.02;100.00
41800;BME280;27468;47.460;19.034;2023-08-30T04:35:31;99300.44;;;17.13;100.00
41800;BME280;27468;47.460;19.034;2023-08-30T04:37:58;99305.84;;;17.12;100.00
41800;BME280;27468;47.460;19.034;2023-08-30T04:40:24;99291.78;;;17.10;100.00
41800;BME280;27468;47.460;19.034;2023-08-30T04:42:49;99279.59;;;17.06;100.00
41800;BME280;27468;47.460;19.034;2023-08-30T04:45:14;99296.13;;;17.25;100.00
41800;BME280;27468;47.460;19.034;2023-08-30T04:47:40;99274.25;;;17.20;100.00
41800;BME280;27468;47.460;19.034;2023-08-30T04:50:08;99236.03;;;17.07;100.00
41800;BME280;27468;47.460;19.034;2023-08-30T04:52:34;99280.06;;;17.39;100.00
41800;BME280;27468;47.460;19.034;2023-08-30T04:54:59;99236.97;;;17.20;100.00
41800;BME280;27468;47.460;19.034;2023-08-30T04:57:24;99266.34;;;17.33;100.00
41800;BME280;27468;47.460;19.034;2023-08-30T04:59:50;99260.78;;;17.36;100.00
41800;BME280;27468;47.460;19.034;2023-08-30T05:02:15;99287.06;;;17.55;100.00
41800;BME280;27468;47.460;19.034;2023-08-30T05:04:41;99273.28;;;17.48;100.00
41800;BME280;27468;47.460;19.034;2023-08-30T05:07:07;99291.25;;;17.59;100.00
41800;BME280;27468;47.460;19.034;2023-08-30T05:09:33;99253.22;;;17.42;100.00
41800;BME280;27468;47.460;19.034;2023-08-30T05:11:59;99283.06;;;17.62;100.00
41800;BME280;27468;47.460;19.034;2023-08-30T05:14:25;99274.84;;;17.65;100.00
41800;BME280;27468;47.460;19.034;2023-08-30T05:16:50;99214.63;;;17.35;100.00
41800;BME280;27468;47.460;19.034;2023-08-30T05:19:16;99239.97;;;17.55;100.00
41800;BME280;27468;47.460;19.034;2023-08-30T05:21:42;99288.72;;;17.84;100.00
41800;BME280;27468;47.460;19.034;2023-08-30T05:24:08;99277.69;;;17.76;100.00
41800;BME280;27468;47.460;19.034;2023-08-30T05:26:34;99254.03;;;17.57;100.00
41800;BME280;27468;47.460;19.034;2023-08-30T05:28:59;99279.19;;;17.80;100.00
41800;BME280;27468;47.460;19.034;2023-08-30T05:31:25;99305.97;;;17.91;100.00
41800;BME280;27468;47.460;19.034;2023-08-30T05:33:50;99260.41;;;17.69;100.00
41800;BME280;27468;47.460;19.034;2023-08-30T05:36:16;99297.47;;;17.86;100.00
41800;BME280;27468;47.460;19.034;2023-08-30T05:38:42;99316.78;;;18.02;100.00
41800;BME280;27468;47.460;19.034;2023-08-30T05:41:07;99294.78;;;17.99;100.00
41800;BME280;27468;47.460;19.034;2023-08-30T05:43:33;99277.72;;;17.89;100.00
41800;BME280;27468;47.460;19.034;2023-08-30T05:45:58;99249.31;;;17.75;100.00
41800;BME280;27468;47.460;19.034;2023-08-30T05:48:28;99313.91;;;18.05;100.00
41800;BME280;27468;47.460;19.034;2023-08-30T05:50:53;99290.00;;;18.04;100.00
41800;BME280;27468;47.460;19.034;2023-08-30T05:53:18;99249.16;;;17.91;100.00
41800;BME280;27468;47.460;19.034;2023-08-30T05:55:44;99311.59;;;18.26;100.00
41800;BME280;27468;47.460;19.034;2023-08-30T05:58:09;99277.00;;;18.12;100.00
41800;BME280;27468;47.460;19.034;2023-08-30T06:00:35;99244.34;;;18.08;100.00
41800;BME280;27468;47.460;19.034;2023-08-30T06:03:00;99297.09;;;18.43;100.00
41800;BME280;27468;47.460;19.034;2023-08-30T06:05:26;99268.50;;;18.32;100.00
41800;BME280;27468;47.460;19.034;2023-08-30T06:07:51;99277.47;;;18.31;99.98
41800;BME280;27468;47.460;19.034;2023-08-30T06:10:17;99292.50;;;18.32;100.00
41800;BME280;27468;47.460;19.034;2023-08-30T06:12:42;99309.78;;;18.52;99.90
41800;BME280;27468;47.460;19.034;2023-08-30T06:15:08;99315.28;;;18.63;99.14
41800;BME280;27468;47.460;19.034;2023-08-30T06:17:33;99251.72;;;18.30;97.61
41800;BME280;27468;47.460;19.034;2023-08-30T06:19:59;99278.63;;;18.53;97.29
41800;BME280;27468;47.460;19.034;2023-08-30T06:22:24;99292.19;;;18.75;96.52
41800;BME280;27468;47.460;19.034;2023-08-30T06:24:50;99319.84;;;18.99;94.98
41800;BME280;27468;47.460;19.034;2023-08-30T06:27:15;99269.13;;;18.61;95.20
41800;BME280;27468;47.460;19.034;2023-08-30T06:29:40;99327.75;;;19.01;94.59
41800;BME280;27468;47.460;19.034;2023-08-30T06:32:06;99318.56;;;19.05;94.23
41800;BME280;27468;47.460;19.034;2023-08-30T06:34:31;99333.47;;;19.07;94.32
41800;BME280;27468;47.460;19.034;2023-08-30T06:36:57;99295.81;;;18.87;94.91
41800;BME280;27468;47.460;19.034;2023-08-30T06:39:22;99310.00;;;19.00;94.53
41800;BME280;27468;47.460;19.034;2023-08-30T06:42:03;99335.25;;;19.32;93.94
41800;BME280;27468;47.460;19.034;2023-08-30T06:44:29;99333.00;;;19.39;92.84
41800;BME280;27468;47.460;19.034;2023-08-30T06:46:56;99322.19;;;19.40;92.58
41800;BME280;27468;47.460;19.034;2023-08-30T06:49:21;99271.22;;;19.31;91.11
41800;BME280;27468;47.460;19.034;2023-08-30T06:51:47;99309.22;;;19.47;91.21
41800;BME280;27468;47.460;19.034;2023-08-30T06:54:12;99291.44;;;19.22;91.66
41800;BME280;27468;47.460;19.034;2023-08-30T06:56:38;99302.44;;;19.30;90.74
41800;BME280;27468;47.460;19.034;2023-08-30T06:59:03;99311.28;;;19.43;91.66
41800;BME280;27468;47.460;19.034;2023-08-30T07:01:28;99324.84;;;19.77;91.15
41800;BME280;27468;47.460;19.034;2023-08-30T07:03:54;99305.50;;;19.73;89.06
41800;BME280;27468;47.460;19.034;2023-08-30T07:06:19;99305.44;;;19.86;89.14
41800;BME280;27468;47.460;19.034;2023-08-30T07:08:45;99313.69;;;20.07;88.46
41800;BME280;27468;47.460;19.034;2023-08-30T07:11:10;99288.06;;;19.92;88.97
41800;BME280;27468;47.460;19.034;2023-08-30T07:13:36;99334.91;;;20.21;86.60
41800;BME280;27468;47.460;19.034;2023-08-30T07:16:01;99301.03;;;20.09;86.97
41800;BME280;27468;47.460;19.034;2023-08-30T07:18:26;99325.91;;;20.33;86.30
41800;BME280;27468;47.460;19.034;2023-08-30T07:20:52;99293.63;;;20.24;85.87
41800;BME280;27468;47.460;19.034;2023-08-30T07:23:17;99306.00;;;20.49;86.99
41800;BME280;27468;47.460;19.034;2023-08-30T07:25:43;99292.16;;;20.66;84.46
41800;BME280;27468;47.460;19.034;2023-08-30T07:28:08;99299.97;;;20.69;83.10
41800;BME280;27468;47.460;19.034;2023-08-30T07:30:34;99312.50;;;21.02;82.60
41800;BME280;27468;47.460;19.034;2023-08-30T07:33:00;99302.88;;;20.99;81.06
41800;BME280;27468;47.460;19.034;2023-08-30T07:35:25;99342.25;;;21.21;81.49
41800;BME280;27468;47.460;19.034;2023-08-30T07:37:51;99326.38;;;21.18;82.21
41800;BME280;27468;47.460;19.034;2023-08-30T07:40:16;99356.59;;;21.20;82.90
41800;BME280;27468;47.460;19.034;2023-08-30T07:42:42;99370.00;;;21.20;83.40
41800;BME280;27468;47.460;19.034;2023-08-30T07:45:08;99345.88;;;21.09;83.47
41800;BME280;27468;47.460;19.034;2023-08-30T07:47:33;99353.31;;;21.05;83.26
41800;BME280;27468;47.460;19.034;2023-08-30T07:49:59;99361.47;;;21.04;83.64
41800;BME280;27468;47.460;19.034;2023-08-30T07:52:24;99318.47;;;20.61;83.15
41800;BME280;27468;47.460;19.034;2023-08-30T07:54:50;99365.81;;;20.83;83.12
41800;BME280;27468;47.460;19.034;2023-08-30T07:57:15;99344.25;;;20.62;84.95
41800;BME280;27468;47.460;19.034;2023-08-30T07:59:40;99353.16;;;20.62;85.02
41800;BME280;27468;47.460;19.034;2023-08-30T08:02:06;99363.00;;;20.62;85.88
41800;BME280;27468;47.460;19.034;2023-08-30T08:04:33;99352.91;;;20.65;85.83
41800;BME280;27468;47.460;19.034;2023-08-30T08:06:59;99371.56;;;20.78;85.58
41800;BME280;27468;47.460;19.034;2023-08-30T08:09:24;99362.28;;;20.82;85.08
41800;BME280;27468;47.460;19.034;2023-08-30T08:11:50;99374.72;;;20.94;84.54
41800;BME280;27468;47.460;19.034;2023-08-30T08:14:16;99372.91;;;20.95;84.36
41800;BME280;27468;47.460;19.034;2023-08-30T08:16:41;99386.31;;;21.06;83.92
41800;BME280;27468;47.460;19.034;2023-08-30T08:19:07;99373.53;;;21.09;83.38
41800;BME280;27468;47.460;19.034;2023-08-30T08:21:33;99344.03;;;20.98;82.55
41800;BME280;27468;47.460;19.034;2023-08-30T08:23:59;99341.13;;;21.01;81.95
41800;BME280;27468;47.460;19.034;2023-08-30T08:26:24;99339.78;;;21.07;81.94
41800;BME280;27468;47.460;19.034;2023-08-30T08:28:50;99336.41;;;21.27;81.75
41800;BME280;27468;47.460;19.034;2023-08-30T08:31:16;99369.75;;;21.57;81.29
41800;BME280;27468;47.460;19.034;2023-08-30T08:33:41;99370.19;;;21.73;79.77
41800;BME280;27468;47.460;19.034;2023-08-30T08:36:06;99387.22;;;21.94;79.52
41800;BME280;27468;47.460;19.034;2023-08-30T08:38:32;99369.50;;;22.03;77.91
41800;BME280;27468;47.460;19.034;2023-08-30T08:41:06;99371.25;;;22.25;76.75
41800;BME280;27468;47.460;19.034;2023-08-30T08:43:34;99347.16;;;22.14;76.40
41800;BME280;27468;47.460;19.034;2023-08-30T08:46:02;99369.72;;;22.43;75.86
41800;BME280;27468;47.460;19.034;2023-08-30T08:48:29;99350.44;;;22.38;74.99
41800;BME280;27468;47.460;19.034;2023-08-30T08:50:56;99352.81;;;22.52;75.04
41800;BME280;27468;47.460;19.034;2023-08-30T08:53:22;99344.75;;;22.52;73.98
41800;BME280;27468;47.460;19.034;2023-08-30T08:55:48;99338.22;;;22.45;73.21
41800;BME280;27468;47.460;19.034;2023-08-30T08:58:14;99375.72;;;22.56;73.68
41800;BME280;27468;47.460;19.034;2023-08-30T09:00:44;99377.69;;;22.54;73.69
41800;BME280;27468;47.460;19.034;2023-08-30T09:03:10;99378.59;;;22.64;74.02
41800;BME280;27468;47.460;19.034;2023-08-30T09:05:39;99347.03;;;22.57;72.77
41800;BME280;27468;47.460;19.034;2023-08-30T09:08:06;99391.88;;;22.98;72.74
41800;BME280;27468;47.460;19.034;2023-08-30T09:10:32;99380.13;;;22.99;71.32
41800;BME280;27468;47.460;19.034;2023-08-30T09:12:58;99386.94;;;23.03;70.40
41800;BME280;27468;47.460;19.034;2023-08-30T09:15:33;99378.69;;;22.95;70.31
41800;BME280;27468;47.460;19.034;2023-08-30T09:17:59;99403.47;;;22.98;69.85
41800;BME280;27468;47.460;19.034;2023-08-30T09:20:25;99401.72;;;22.88;69.67
41800;BME280;27468;47.460;19.034;2023-08-30T09:22:50;99368.91;;;22.73;70.23
41800;BME280;27468;47.460;19.034;2023-08-30T09:25:26;99398.69;;;23.02;69.35
41800;BME280;27468;47.460;19.034;2023-08-30T09:27:57;99358.75;;;22.77;69.93
41800;BME280;27468;47.460;19.034;2023-08-30T09:30:23;99409.47;;;23.12;69.52
41800;BME280;27468;47.460;19.034;2023-08-30T09:32:48;99398.69;;;22.81;68.73
41800;BME280;27468;47.460;19.034;2023-08-30T09:35:14;99398.69;;;23.02;69.35
41800;BME280;27468;47.460;19.034;2023-08-30T09:37:39;99390.63;;;23.02;69.75
41800;BME280;27468;47.460;19.034;2023-08-30T09:40:05;99403.44;;;23.19;67.40
41800;BME280;27468;47.460;19.034;2023-08-30T09:42:31;99415.09;;;23.29;67.62
41800;BME280;27468;47.460;19.034;2023-08-30T09:44:57;99410.19;;;23.44;67.87
41800;BME280;27468;47.460;19.034;2023-08-30T09:47:26;99418.38;;;23.63;66.89
41800;BME280;27468;47.460;19.034;2023-08-30T09:49:56;99426.47;;;23.83;66.84
41800;BME280;27468;47.460;19.034;2023-08-30T09:52:24;99415.03;;;23.90;66.23
41800;BME280;27468;47.460;19.034;2023-08-30T09:54:51;99437.31;;;24.12;64.72
41800;BME280;27468;47.460;19.034;2023-08-30T09:57:17;99419.75;;;24.08;64.34
41800;BME280;27468;47.460;19.034;2023-08-30T09:59:42;99443.25;;;24.06;64.35
41800;BME280;27468;47.460;19.034;2023-08-30T10:02:08;99415.75;;;23.92;63.54
41800;BME280;27468;47.460;19.034;2023-08-30T10:04:37;99365.03;;;23.48;62.72
41800;BME280;27468;47.460;19.034;2023-08-30T10:07:04;99426.31;;;23.65;64.31
41800;BME280;27468;47.460;19.034;2023-08-30T10:09:30;99425.31;;;23.76;64.36
41800;BME280;27468;47.460;19.034;2023-08-30T10:11:58;99427.53;;;24.01;63.86
41800;BME280;27468;47.460;19.034;2023-08-30T10:14:23;99421.31;;;24.20;63.82
41800;BME280;27468;47.460;19.034;2023-08-30T10:16:49;99413.09;;;24.21;63.67
41800;BME280;27468;47.460;19.034;2023-08-30T10:21:48;99427.44;;;23.72;63.97
41800;BME280;27468;47.460;19.034;2023-08-30T10:24:18;99431.00;;;23.82;63.81
41800;BME280;27468;47.460;19.034;2023-08-30T10:26:45;99434.19;;;23.97;62.56
41800;BME280;27468;47.460;19.034;2023-08-30T10:29:13;99431.31;;;23.89;63.34
41800;BME280;27468;47.460;19.034;2023-08-30T10:31:40;99434.03;;;23.98;63.42
41800;BME280;27468;47.460;19.034;2023-08-30T10:34:14;99405.38;;;23.88;62.58
41800;BME280;27468;47.460;19.034;2023-08-30T10:36:41;99394.03;;;23.75;62.03
41800;BME280;27468;47.460;19.034;2023-08-30T10:39:14;99428.09;;;24.04;61.80
41800;BME280;27468;47.460;19.034;2023-08-30T10:41:56;99414.50;;;24.06;62.46
41800;BME280;27468;47.460;19.034;2023-08-30T10:44:21;99425.66;;;23.92;62.21
41800;BME280;27468;47.460;19.034;2023-08-30T10:46:55;99424.66;;;23.93;63.20
41800;BME280;27468;47.460;19.034;2023-08-30T10:49:21;99418.56;;;23.91;63.05
41800;BME280;27468;47.460;19.034;2023-08-30T10:51:57;99383.41;;;23.83;62.01
41800;BME280;27468;47.460;19.034;2023-08-30T10:54:23;99428.13;;;24.14;61.54
41800;BME280;27468;47.460;19.034;2023-08-30T10:59:21;99410.13;;;24.34;61.77
41800;BME280;27468;47.460;19.034;2023-08-30T11:01:48;99378.22;;;24.10;61.44
41800;BME280;27468;47.460;19.034;2023-08-30T11:04:17;99401.19;;;24.24;60.97
41800;BME280;27468;47.460;19.034;2023-08-30T11:06:47;99411.41;;;24.30;60.07
41800;BME280;27468;47.460;19.034;2023-08-30T11:09:18;99415.69;;;24.52;60.79
41800;BME280;27468;47.460;19.034;2023-08-30T11:11:45;99408.56;;;24.70;59.88
41800;BME280;27468;47.460;19.034;2023-08-30T11:14:11;99376.09;;;24.72;59.82
41800;BME280;27468;47.460;19.034;2023-08-30T11:16:37;99399.88;;;25.05;59.00
41800;BME280;27468;47.460;19.034;2023-08-30T11:19:04;99397.72;;;25.09;58.30
41800;BME280;27468;47.460;19.034;2023-08-30T11:21:35;99403.66;;;25.22;57.08
41800;BME280;27468;47.460;19.034;2023-08-30T11:24:03;99404.56;;;25.03;56.64
41800;BME280;27468;47.460;19.034;2023-08-30T11:26:28;99391.50;;;24.98;58.46
41800;BME280;27468;47.460;19.034;2023-08-30T11:28:54;99402.28;;;25.08;57.97
41800;BME280;27468;47.460;19.034;2023-08-30T11:31:24;99413.75;;;25.10;56.82
41800;BME280;27468;47.460;19.034;2023-08-30T11:33:53;99389.81;;;24.97;57.05
41800;BME280;27468;47.460;19.034;2023-08-30T11:36:21;99405.13;;;24.97;55.95
41800;BME280;27468;47.460;19.034;2023-08-30T11:38:49;99367.41;;;24.78;55.49
41800;BME280;27468;47.460;19.034;2023-08-30T11:41:15;99376.31;;;24.88;56.74
41800;BME280;27468;47.460;19.034;2023-08-30T11:43:41;99398.00;;;25.06;56.76
41800;BME280;27468;47.460;19.034;2023-08-30T11:46:08;99399.97;;;25.13;57.39
41800;BME280;27468;47.460;19.034;2023-08-30T11:48:34;99385.81;;;25.01;55.75
41800;BME280;27468;47.460;19.034;2023-08-30T11:51:00;99379.03;;;24.97;56.45
41800;BME280;27468;47.460;19.034;2023-08-30T11:53:26;99398.22;;;25.31;56.11
41800;BME280;27468;47.460;19.034;2023-08-30T11:55:53;99386.88;;;25.28;56.32
41800;BME280;27468;47.460;19.034;2023-08-30T11:58:18;99381.06;;;25.23;56.11
41800;BME280;27468;47.460;19.034;2023-08-30T12:00:44;99399.41;;;25.19;57.02
41800;BME280;27468;47.460;19.034;2023-08-30T12:03:13;99389.44;;;25.29;57.66
41800;BME280;27468;47.460;19.034;2023-08-30T12:05:45;99399.22;;;25.30;57.42
41800;BME280;27468;47.460;19.034;2023-08-30T12:08:27;99353.44;;;25.11;57.88
41800;BME280;27468;47.460;19.034;2023-08-30T12:10:54;99399.19;;;25.40;57.70
41800;BME280;27468;47.460;19.034;2023-08-30T12:13:27;99353.81;;;25.26;57.75
41800;BME280;27468;47.460;19.034;2023-08-30T12:15:53;99353.22;;;25.32;57.96
41800;BME280;27468;47.460;19.034;2023-08-30T12:18:23;99365.03;;;25.49;57.28
41800;BME280;27468;47.460;19.034;2023-08-30T12:21:03;99359.63;;;25.49;57.16
41800;BME280;27468;47.460;19.034;2023-08-30T12:23:31;99390.50;;;25.74;57.37
41800;BME280;27468;47.460;19.034;2023-08-30T12:26:00;99352.34;;;25.59;57.09
41800;BME280;27468;47.460;19.034;2023-08-30T12:28:27;99398.78;;;25.90;56.80
41800;BME280;27468;47.460;19.034;2023-08-30T12:30:53;99370.16;;;25.79;56.30
41800;BME280;27468;47.460;19.034;2023-08-30T12:33:19;99379.97;;;25.98;56.24
41800;BME280;27468;47.460;19.034;2023-08-30T12:35:44;99354.44;;;25.92;55.76
41800;BME280;27468;47.460;19.034;2023-08-30T12:38:10;99385.59;;;26.05;55.50
41800;BME280;27468;47.460;19.034;2023-08-30T12:40:37;99382.81;;;25.79;55.54
41800;BME280;27468;47.460;19.034;2023-08-30T12:43:03;99382.56;;;25.62;56.71
41800;BME280;27468;47.460;19.034;2023-08-30T12:45:29;99340.34;;;25.44;56.85
41800;BME280;27468;47.460;19.034;2023-08-30T12:47:54;99386.44;;;25.60;57.17
41800;BME280;27468;47.460;19.034;2023-08-30T12:50:21;99347.56;;;25.25;57.17